sensor_id;sensor_type;location;lat;lon;timestamp;P1;durP1;ratioP1;P2;durP2;ratioP2
6205;SDS011;3136;48.788;9.772;2022-10-31T00:01:33;17.30;;;5.57;;
6205;SDS011;3136;48.788;9.772;2022-10-31T00:03:59;11.53;;;5.63;;
6205;SDS011;3136;48.788;9.772;2022-10-31T00:06:25;7.93;;;5.23;;
6205;SDS011;3136;48.788;9.772;2022-10-31T00:08:58;7.53;;;5.17;;
6205;SDS011;3136;48.788;9.772;2022-10-31T00:11:25;11.37;;;6.00;;
6205;SDS011;3136;48.788;9.772;2022-10-31T00:13:51;10.50;;;6.37;;
6205;SDS011;3136;48.788;9.772;2022-10-31T00:16:18;16.43;;;6.27;;
6205;SDS011;3136;48.788;9.772;2022-10-31T00:18:49;9.90;;;5.50;;
6205;SDS011;3136;48.788;9.772;2022-10-31T00:21:22;12.67;;;5.63;;
6205;SDS011;3136;48.788;9.772;2022-10-31T00:23:49;7.77;;;5.17;;
6205;SDS011;3136;48.788;9.772;2022-10-31T00:26:15;15.87;;;5.50;;
6205;SDS011;3136;48.788;9.772;2022-10-31T00:28:41;12.77;;;5.83;;
6205;SDS011;3136;48.788;9.772;2022-10-31T00:31:07;11.33;;;5.23;;
6205;SDS011;3136;48.788;9.772;2022-10-31T00:33:34;13.60;;;5.53;;
6205;SDS011;3136;48.788;9.772;2022-10-31T00:36:01;10.37;;;5.40;;
6205;SDS011;3136;48.788;9.772;2022-10-31T00:38:28;12.53;;;5.33;;
6205;SDS011;3136;48.788;9.772;2022-10-31T00:40:53;10.07;;;5.23;;
6205;SDS011;3136;48.788;9.772;2022-10-31T00:43:19;10.53;;;5.33;;
6205;SDS011;3136;48.788;9.772;2022-10-31T00:45:44;7.97;;;4.80;;
6205;SDS011;3136;48.788;9.772;2022-10-31T00:48:11;13.67;;;5.67;;
6205;SDS011;3136;48.788;9.772;2022-10-31T00:50:37;11.73;;;5.07;;
6205;SDS011;3136;48.788;9.772;2022-10-31T00:53:03;10.00;;;5.27;;
6205;SDS011;3136;48.788;9.772;2022-10-31T00:55:28;10.30;;;5.10;;
6205;SDS011;3136;48.788;9.772;2022-10-31T00:57:54;17.77;;;5.40;;
6205;SDS011;3136;48.788;9.772;2022-10-31T01:00:20;16.10;;;5.70;;
6205;SDS011;3136;48.788;9.772;2022-10-31T01:02:45;15.27;;;5.00;;
6205;SDS011;3136;48.788;9.772;2022-10-31T01:05:11;7.97;;;4.73;;
6205;SDS011;3136;48.788;9.772;2022-10-31T01:07:37;7.83;;;5.60;;
6205;SDS011;3136;48.788;9.772;2022-10-31T01:10:04;9.00;;;5.33;;
6205;SDS011;3136;48.788;9.772;2022-10-31T01:12:40;13.63;;;5.30;;
6205;SDS011;3136;48.788;9.772;2022-10-31T01:15:08;12.53;;;5.27;;
6205;SDS011;3136;48.788;9.772;2022-10-31T01:17:35;12.63;;;5.73;;
6205;SDS011;3136;48.788;9.772;2022-10-31T01:20:00;9.90;;;4.97;;
6205;SDS011;3136;48.788;9.772;2022-10-31T01:22:26;14.93;;;4.87;;
6205;SDS011;3136;48.788;9.772;2022-10-31T01:24:52;13.50;;;5.50;;
6205;SDS011;3136;48.788;9.772;2022-10-31T01:27:18;10.70;;;5.20;;
6205;SDS011;3136;48.788;9.772;2022-10-31T01:29:43;10.93;;;5.53;;
6205;SDS011;3136;48.788;9.772;2022-10-31T01:32:09;8.13;;;4.97;;
6205;SDS011;3136;48.788;9.772;2022-10-31T01:34:34;9.97;;;4.77;;
6205;SDS011;3136;48.788;9.772;2022-10-31T01:37:00;14.97;;;5.33;;
6205;SDS011;3136;48.788;9.772;2022-10-31T01:39:25;8.27;;;5.17;;
6205;SDS011;3136;48.788;9.772;2022-10-31T01:41:52;10.07;;;5.20;;
6205;SDS011;3136;48.788;9.772;2022-10-31T01:46:48;11.77;;;5.77;;
6205;SDS011;3136;48.788;9.772;2022-10-31T01:49:20;12.83;;;5.70;;
6205;SDS011;3136;48.788;9.772;2022-10-31T01:51:50;10.17;;;5.57;;
6205;SDS011;3136;48.788;9.772;2022-10-31T01:54:23;8.20;;;5.20;;
6205;SDS011;3136;48.788;9.772;2022-10-31T01:56:54;10.13;;;5.43;;
6205;SDS011;3136;48.788;9.772;2022-10-31T01:59:23;7.60;;;4.63;;
6205;SDS011;3136;48.788;9.772;2022-10-31T02:01:52;8.33;;;5.03;;
6205;SDS011;3136;48.788;9.772;2022-10-31T02:04:18;10.03;;;5.17;;
6205;SDS011;3136;48.788;9.772;2022-10-31T02:06:49;9.47;;;5.63;;
6205;SDS011;3136;48.788;9.772;2022-10-31T02:09:20;10.33;;;5.30;;
6205;SDS011;3136;48.788;9.772;2022-10-31T02:11:48;12.77;;;5.77;;
6205;SDS011;3136;48.788;9.772;2022-10-31T02:14:23;13.57;;;5.60;;
6205;SDS011;3136;48.788;9.772;2022-10-31T02:16:51;11.40;;;5.63;;
6205;SDS011;3136;48.788;9.772;2022-10-31T02:19:19;16.23;;;6.30;;
6205;SDS011;3136;48.788;9.772;2022-10-31T02:22:00;9.00;;;5.27;;
6205;SDS011;3136;48.788;9.772;2022-10-31T02:30:18;13.53;;;5.57;;
6205;SDS011;3136;48.788;9.772;2022-10-31T02:38:13;10.57;;;5.13;;
6205;SDS011;3136;48.788;9.772;2022-10-31T02:40:44;14.10;;;5.80;;
6205;SDS011;3136;48.788;9.772;2022-10-31T02:43:29;10.13;;;5.20;;
6205;SDS011;3136;48.788;9.772;2022-10-31T02:46:10;9.27;;;4.97;;
6205;SDS011;3136;48.788;9.772;2022-10-31T02:48:43;9.30;;;5.63;;
6205;SDS011;3136;48.788;9.772;2022-10-31T02:51:10;10.17;;;5.40;;
6205;SDS011;3136;48.788;9.772;2022-10-31T02:53:37;11.07;;;5.83;;
6205;SDS011;3136;48.788;9.772;2022-10-31T02:56:21;14.30;;;5.50;;
6205;SDS011;3136;48.788;9.772;2022-10-31T03:01:39;13.17;;;5.60;;
6205;SDS011;3136;48.788;9.772;2022-10-31T03:04:40;33.93;;;24.53;;
6205;SDS011;3136;48.788;9.772;2022-10-31T03:07:22;20.50;;;12.27;;
6205;SDS011;3136;48.788;9.772;2022-10-31T03:10:34;15.37;;;8.03;;
6205;SDS011;3136;48.788;9.772;2022-10-31T03:13:18;10.80;;;6.60;;
6205;SDS011;3136;48.788;9.772;2022-10-31T03:15:51;11.87;;;5.93;;
6205;SDS011;3136;48.788;9.772;2022-10-31T03:20:53;11.47;;;5.70;;
6205;SDS011;3136;48.788;9.772;2022-10-31T03:23:26;17.00;;;6.57;;
6205;SDS011;3136;48.788;9.772;2022-10-31T03:25:54;12.13;;;6.20;;
6205;SDS011;3136;48.788;9.772;2022-10-31T03:28:22;8.47;;;5.53;;
6205;SDS011;3136;48.788;9.772;2022-10-31T03:30:52;11.00;;;5.13;;
6205;SDS011;3136;48.788;9.772;2022-10-31T03:33:21;12.57;;;5.90;;
6205;SDS011;3136;48.788;9.772;2022-10-31T03:35:52;8.87;;;5.70;;
6205;SDS011;3136;48.788;9.772;2022-10-31T03:38:20;12.30;;;5.60;;
6205;SDS011;3136;48.788;9.772;2022-10-31T03:40:47;14.27;;;6.00;;
6205;SDS011;3136;48.788;9.772;2022-10-31T03:43:17;9.80;;;5.77;;
6205;SDS011;3136;48.788;9.772;2022-10-31T03:45:47;11.97;;;5.50;;
6205;SDS011;3136;48.788;9.772;2022-10-31T03:48:13;10.17;;;5.70;;
6205;SDS011;3136;48.788;9.772;2022-10-31T03:50:47;8.83;;;5.63;;
6205;SDS011;3136;48.788;9.772;2022-10-31T03:53:52;8.57;;;5.37;;
6205;SDS011;3136;48.788;9.772;2022-10-31T03:56:29;17.10;;;5.70;;
6205;SDS011;3136;48.788;9.772;2022-10-31T03:59:02;8.13;;;5.23;;
6205;SDS011;3136;48.788;9.772;2022-10-31T04:01:36;9.73;;;4.73;;
6205;SDS011;3136;48.788;9.772;2022-10-31T04:04:06;7.10;;;5.40;;
6205;SDS011;3136;48.788;9.772;2022-10-31T04:06:32;8.70;;;5.50;;
6205;SDS011;3136;48.788;9.772;2022-10-31T04:09:02;7.67;;;5.13;;
6205;SDS011;3136;48.788;9.772;2022-10-31T04:11:30;9.43;;;5.30;;
6205;SDS011;3136;48.788;9.772;2022-10-31T04:14:00;10.33;;;5.53;;
6205;SDS011;3136;48.788;9.772;2022-10-31T04:16:28;13.27;;;5.40;;
6205;SDS011;3136;48.788;9.772;2022-10-31T04:18:54;9.77;;;5.77;;
6205;SDS011;3136;48.788;9.772;2022-10-31T04:21:24;10.40;;;5.50;;
6205;SDS011;3136;48.788;9.772;2022-10-31T04:23:52;9.17;;;5.30;;
6205;SDS011;3136;48.788;9.772;2022-10-31T04:26:17;9.70;;;5.23;;
6205;SDS011;3136;48.788;9.772;2022-10-31T04:28:43;12.00;;;5.40;;
6205;SDS011;3136;48.788;9.772;2022-10-31T04:31:09;12.10;;;5.70;;
6205;SDS011;3136;48.788;9.772;2022-10-31T04:33:36;9.53;;;5.20;;
6205;SDS011;3136;48.788;9.772;2022-10-31T04:36:02;9.67;;;5.17;;
6205;SDS011;3136;48.788;9.772;2022-10-31T04:38:28;10.77;;;5.50;;
6205;SDS011;3136;48.788;9.772;2022-10-31T04:40:53;14.70;;;6.13;;
6205;SDS011;3136;48.788;9.772;2022-10-31T04:43:19;7.90;;;5.50;;
6205;SDS011;3136;48.788;9.772;2022-10-31T04:45:44;9.20;;;5.60;;
6205;SDS011;3136;48.788;9.772;2022-10-31T04:48:10;12.97;;;5.60;;
6205;SDS011;3136;48.788;9.772;2022-10-31T04:50:35;11.27;;;5.60;;
6205;SDS011;3136;48.788;9.772;2022-10-31T04:53:01;9.63;;;5.40;;
6205;SDS011;3136;48.788;9.772;2022-10-31T04:55:27;10.47;;;5.20;;
6205;SDS011;3136;48.788;9.772;2022-10-31T04:57:52;11.97;;;5.53;;
6205;SDS011;3136;48.788;9.772;2022-10-31T05:00:18;9.17;;;5.67;;
6205;SDS011;3136;48.788;9.772;2022-10-31T05:02:46;12.93;;;5.83;;
6205;SDS011;3136;48.788;9.772;2022-10-31T05:05:21;11.00;;;5.67;;
6205;SDS011;3136;48.788;9.772;2022-10-31T05:07:52;10.20;;;5.03;;
6205;SDS011;3136;48.788;9.772;2022-10-31T05:10:20;12.77;;;5.20;;
6205;SDS011;3136;48.788;9.772;2022-10-31T05:12:54;7.53;;;5.07;;
6205;SDS011;3136;48.788;9.772;2022-10-31T05:15:22;8.77;;;5.30;;
6205;SDS011;3136;48.788;9.772;2022-10-31T05:17:49;10.20;;;5.63;;
6205;SDS011;3136;48.788;9.772;2022-10-31T05:20:16;15.47;;;5.70;;
6205;SDS011;3136;48.788;9.772;2022-10-31T05:22:43;8.47;;;5.30;;
6205;SDS011;3136;48.788;9.772;2022-10-31T05:25:10;11.77;;;5.83;;
6205;SDS011;3136;48.788;9.772;2022-10-31T05:27:40;7.33;;;5.00;;
6205;SDS011;3136;48.788;9.772;2022-10-31T05:30:06;10.07;;;5.80;;
6205;SDS011;3136;48.788;9.772;2022-10-31T05:32:37;11.87;;;5.67;;
6205;SDS011;3136;48.788;9.772;2022-10-31T05:35:07;12.07;;;5.53;;
6205;SDS011;3136;48.788;9.772;2022-10-31T05:37:34;12.33;;;5.97;;
6205;SDS011;3136;48.788;9.772;2022-10-31T05:40:00;8.00;;;5.33;;
6205;SDS011;3136;48.788;9.772;2022-10-31T05:42:26;10.40;;;5.50;;
6205;SDS011;3136;48.788;9.772;2022-10-31T05:44:52;11.97;;;6.20;;
6205;SDS011;3136;48.788;9.772;2022-10-31T05:47:17;8.53;;;6.10;;
6205;SDS011;3136;48.788;9.772;2022-10-31T05:49:43;9.37;;;5.60;;
6205;SDS011;3136;48.788;9.772;2022-10-31T05:52:08;11.00;;;6.03;;
6205;SDS011;3136;48.788;9.772;2022-10-31T05:54:34;11.43;;;6.27;;
6205;SDS011;3136;48.788;9.772;2022-10-31T05:57:00;13.80;;;6.00;;
6205;SDS011;3136;48.788;9.772;2022-10-31T05:59:25;13.50;;;6.57;;
6205;SDS011;3136;48.788;9.772;2022-10-31T06:01:51;11.13;;;6.07;;
6205;SDS011;3136;48.788;9.772;2022-10-31T06:04:16;10.60;;;5.90;;
6205;SDS011;3136;48.788;9.772;2022-10-31T06:06:42;13.00;;;5.60;;
6205;SDS011;3136;48.788;9.772;2022-10-31T06:09:07;12.63;;;5.93;;
6205;SDS011;3136;48.788;9.772;2022-10-31T06:11:33;11.33;;;6.03;;
6205;SDS011;3136;48.788;9.772;2022-10-31T06:13:58;8.87;;;5.57;;
6205;SDS011;3136;48.788;9.772;2022-10-31T06:16:24;9.17;;;5.73;;
6205;SDS011;3136;48.788;9.772;2022-10-31T06:18:49;7.97;;;5.83;;
6205;SDS011;3136;48.788;9.772;2022-10-31T06:21:15;14.73;;;7.03;;
6205;SDS011;3136;48.788;9.772;2022-10-31T06:23:40;17.77;;;7.93;;
6205;SDS011;3136;48.788;9.772;2022-10-31T06:26:06;12.83;;;5.67;;
6205;SDS011;3136;48.788;9.772;2022-10-31T06:28:31;11.23;;;5.47;;
6205;SDS011;3136;48.788;9.772;2022-10-31T06:30:57;7.53;;;4.83;;
6205;SDS011;3136;48.788;9.772;2022-10-31T06:33:22;7.33;;;5.30;;
6205;SDS011;3136;48.788;9.772;2022-10-31T06:35:48;6.47;;;5.17;;
6205;SDS011;3136;48.788;9.772;2022-10-31T06:38:14;11.07;;;5.50;;
6205;SDS011;3136;48.788;9.772;2022-10-31T06:40:40;9.97;;;5.40;;
6205;SDS011;3136;48.788;9.772;2022-10-31T06:43:06;9.37;;;5.87;;
6205;SDS011;3136;48.788;9.772;2022-10-31T06:45:32;14.00;;;7.00;;
6205;SDS011;3136;48.788;9.772;2022-10-31T06:47:57;14.87;;;7.67;;
6205;SDS011;3136;48.788;9.772;2022-10-31T06:50:23;10.80;;;7.50;;
6205;SDS011;3136;48.788;9.772;2022-10-31T06:52:52;17.63;;;10.83;;
6205;SDS011;3136;48.788;9.772;2022-10-31T06:55:18;17.33;;;13.20;;
6205;SDS011;3136;48.788;9.772;2022-10-31T07:00:21;14.13;;;9.63;;
6205;SDS011;3136;48.788;9.772;2022-10-31T07:02:56;16.47;;;12.33;;
6205;SDS011;3136;48.788;9.772;2022-10-31T07:05:21;15.63;;;10.93;;
6205;SDS011;3136;48.788;9.772;2022-10-31T07:07:51;17.77;;;10.33;;
6205;SDS011;3136;48.788;9.772;2022-10-31T07:10:21;14.40;;;8.30;;
6205;SDS011;3136;48.788;9.772;2022-10-31T07:12:48;12.63;;;6.60;;
6205;SDS011;3136;48.788;9.772;2022-10-31T07:15:18;12.10;;;7.57;;
6205;SDS011;3136;48.788;9.772;2022-10-31T07:17:43;14.00;;;6.17;;
6205;SDS011;3136;48.788;9.772;2022-10-31T07:20:09;18.83;;;7.13;;
6205;SDS011;3136;48.788;9.772;2022-10-31T07:22:35;15.17;;;6.83;;
6205;SDS011;3136;48.788;9.772;2022-10-31T07:25:01;11.07;;;7.10;;
6205;SDS011;3136;48.788;9.772;2022-10-31T07:27:28;11.73;;;5.83;;
6205;SDS011;3136;48.788;9.772;2022-10-31T07:29:53;7.57;;;4.93;;
6205;SDS011;3136;48.788;9.772;2022-10-31T07:32:19;9.30;;;4.93;;
6205;SDS011;3136;48.788;9.772;2022-10-31T07:34:44;9.83;;;4.83;;
6205;SDS011;3136;48.788;9.772;2022-10-31T07:37:10;7.23;;;5.23;;
6205;SDS011;3136;48.788;9.772;2022-10-31T07:39:35;11.40;;;5.20;;
6205;SDS011;3136;48.788;9.772;2022-10-31T07:42:01;10.80;;;5.53;;
6205;SDS011;3136;48.788;9.772;2022-10-31T07:44:26;11.60;;;5.60;;
6205;SDS011;3136;48.788;9.772;2022-10-31T07:46:52;10.70;;;6.13;;
6205;SDS011;3136;48.788;9.772;2022-10-31T07:49:17;9.10;;;5.23;;
6205;SDS011;3136;48.788;9.772;2022-10-31T07:51:43;13.60;;;5.33;;
6205;SDS011;3136;48.788;9.772;2022-10-31T07:54:08;12.07;;;5.80;;
6205;SDS011;3136;48.788;9.772;2022-10-31T07:56:34;15.63;;;5.13;;
6205;SDS011;3136;48.788;9.772;2022-10-31T07:59:00;7.23;;;4.97;;
6205;SDS011;3136;48.788;9.772;2022-10-31T08:01:25;15.27;;;6.23;;
6205;SDS011;3136;48.788;9.772;2022-10-31T08:03:51;10.97;;;5.10;;
6205;SDS011;3136;48.788;9.772;2022-10-31T08:06:17;9.53;;;5.37;;
6205;SDS011;3136;48.788;9.772;2022-10-31T08:08:42;14.67;;;5.37;;
6205;SDS011;3136;48.788;9.772;2022-10-31T08:11:08;11.07;;;5.43;;
6205;SDS011;3136;48.788;9.772;2022-10-31T08:13:33;8.30;;;5.30;;
6205;SDS011;3136;48.788;9.772;2022-10-31T08:15:59;11.63;;;5.53;;
6205;SDS011;3136;48.788;9.772;2022-10-31T08:18:29;11.33;;;6.27;;
6205;SDS011;3136;48.788;9.772;2022-10-31T08:20:55;10.80;;;5.03;;
6205;SDS011;3136;48.788;9.772;2022-10-31T08:23:20;6.63;;;4.50;;
6205;SDS011;3136;48.788;9.772;2022-10-31T08:25:46;7.40;;;4.90;;
6205;SDS011;3136;48.788;9.772;2022-10-31T08:28:12;8.77;;;5.00;;
6205;SDS011;3136;48.788;9.772;2022-10-31T08:30:39;12.10;;;5.40;;
6205;SDS011;3136;48.788;9.772;2022-10-31T08:35:35;9.83;;;4.80;;
6205;SDS011;3136;48.788;9.772;2022-10-31T08:38:00;10.40;;;4.97;;
6205;SDS011;3136;48.788;9.772;2022-10-31T08:40:27;11.23;;;4.80;;
6205;SDS011;3136;48.788;9.772;2022-10-31T08:42:58;9.63;;;4.80;;
6205;SDS011;3136;48.788;9.772;2022-10-31T08:45:32;13.85;;;5.13;;
6205;SDS011;3136;48.788;9.772;2022-10-31T08:48:03;12.00;;;5.77;;
6205;SDS011;3136;48.788;9.772;2022-10-31T08:50:30;11.87;;;5.30;;
6205;SDS011;3136;48.788;9.772;2022-10-31T08:53:01;14.77;;;5.33;;
6205;SDS011;3136;48.788;9.772;2022-10-31T08:55:36;12.40;;;5.20;;
6205;SDS011;3136;48.788;9.772;2022-10-31T08:58:03;11.43;;;5.00;;
6205;SDS011;3136;48.788;9.772;2022-10-31T09:00:30;12.27;;;5.13;;
6205;SDS011;3136;48.788;9.772;2022-10-31T09:03:01;11.83;;;5.23;;
6205;SDS011;3136;48.788;9.772;2022-10-31T09:05:29;12.50;;;4.93;;
6205;SDS011;3136;48.788;9.772;2022-10-31T09:07:55;12.30;;;4.93;;
6205;SDS011;3136;48.788;9.772;2022-10-31T09:10:22;10.53;;;5.23;;
6205;SDS011;3136;48.788;9.772;2022-10-31T09:13:09;10.37;;;4.50;;
6205;SDS011;3136;48.788;9.772;2022-10-31T09:15:37;17.73;;;4.93;;
6205;SDS011;3136;48.788;9.772;2022-10-31T09:18:04;11.73;;;5.13;;
6205;SDS011;3136;48.788;9.772;2022-10-31T09:20:30;13.60;;;5.57;;
6205;SDS011;3136;48.788;9.772;2022-10-31T09:23:01;7.50;;;5.20;;
6205;SDS011;3136;48.788;9.772;2022-10-31T09:25:32;10.77;;;5.70;;
6205;SDS011;3136;48.788;9.772;2022-10-31T09:27:59;9.80;;;5.73;;
6205;SDS011;3136;48.788;9.772;2022-10-31T09:30:26;10.70;;;5.30;;
6205;SDS011;3136;48.788;9.772;2022-10-31T09:32:57;15.23;;;5.40;;
6205;SDS011;3136;48.788;9.772;2022-10-31T09:35:24;9.63;;;5.20;;
6205;SDS011;3136;48.788;9.772;2022-10-31T09:37:56;10.20;;;5.63;;
6205;SDS011;3136;48.788;9.772;2022-10-31T09:40:45;8.97;;;4.33;;
6205;SDS011;3136;48.788;9.772;2022-10-31T09:43:34;10.47;;;4.70;;
6205;SDS011;3136;48.788;9.772;2022-10-31T09:46:04;11.77;;;4.80;;
6205;SDS011;3136;48.788;9.772;2022-10-31T09:51:33;11.10;;;4.40;;
6205;SDS011;3136;48.788;9.772;2022-10-31T09:54:06;13.30;;;4.93;;
6205;SDS011;3136;48.788;9.772;2022-10-31T09:56:59;13.27;;;5.53;;
6205;SDS011;3136;48.788;9.772;2022-10-31T09:59:29;11.10;;;4.87;;
6205;SDS011;3136;48.788;9.772;2022-10-31T10:02:02;12.37;;;5.07;;
6205;SDS011;3136;48.788;9.772;2022-10-31T10:04:43;8.83;;;4.17;;
6205;SDS011;3136;48.788;9.772;2022-10-31T10:15:59;10.03;;;4.30;;
6205;SDS011;3136;48.788;9.772;2022-10-31T10:18:43;8.00;;;4.53;;
6205;SDS011;3136;48.788;9.772;2022-10-31T10:24:24;10.73;;;4.40;;
6205;SDS011;3136;48.788;9.772;2022-10-31T10:26:55;12.97;;;4.50;;
6205;SDS011;3136;48.788;9.772;2022-10-31T10:29:41;12.23;;;5.07;;
6205;SDS011;3136;48.788;9.772;2022-10-31T10:32:28;11.60;;;4.70;;
6205;SDS011;3136;48.788;9.772;2022-10-31T10:35:04;11.60;;;4.50;;
6205;SDS011;3136;48.788;9.772;2022-10-31T10:37:59;11.27;;;4.90;;
6205;SDS011;3136;48.788;9.772;2022-10-31T10:40:34;11.43;;;4.67;;
6205;SDS011;3136;48.788;9.772;2022-10-31T10:59:14;8.80;;;4.00;;
6205;SDS011;3136;48.788;9.772;2022-10-31T11:01:43;8.33;;;3.70;;
6205;SDS011;3136;48.788;9.772;2022-10-31T11:04:51;10.67;;;4.07;;
6205;SDS011;3136;48.788;9.772;2022-10-31T11:07:09;8.17;;;3.73;;
6205;SDS011;3136;48.788;9.772;2022-10-31T11:09:36;7.10;;;3.47;;
6205;SDS011;3136;48.788;9.772;2022-10-31T11:12:10;6.43;;;3.60;;
6205;SDS011;3136;48.788;9.772;2022-10-31T11:17:31;7.87;;;3.23;;
6205;SDS011;3136;48.788;9.772;2022-10-31T11:20:03;10.27;;;3.50;;
6205;SDS011;3136;48.788;9.772;2022-10-31T11:22:28;7.13;;;3.40;;
6205;SDS011;3136;48.788;9.772;2022-10-31T11:24:54;11.27;;;3.90;;
6205;SDS011;3136;48.788;9.772;2022-10-31T11:27:21;8.73;;;4.10;;
6205;SDS011;3136;48.788;9.772;2022-10-31T11:29:48;10.03;;;3.37;;
6205;SDS011;3136;48.788;9.772;2022-10-31T11:32:17;8.00;;;3.67;;
6205;SDS011;3136;48.788;9.772;2022-10-31T11:34:54;10.37;;;3.63;;
6205;SDS011;3136;48.788;9.772;2022-10-31T11:37:28;7.47;;;3.50;;
6205;SDS011;3136;48.788;9.772;2022-10-31T11:39:59;9.97;;;4.00;;
6205;SDS011;3136;48.788;9.772;2022-10-31T11:42:35;7.27;;;3.40;;
6205;SDS011;3136;48.788;9.772;2022-10-31T11:45:51;10.37;;;3.70;;
6205;SDS011;3136;48.788;9.772;2022-10-31T11:47:59;5.90;;;3.30;;
6205;SDS011;3136;48.788;9.772;2022-10-31T11:50:28;10.57;;;3.40;;
6205;SDS011;3136;48.788;9.772;2022-10-31T11:53:00;10.73;;;3.37;;
6205;SDS011;3136;48.788;9.772;2022-10-31T11:58:00;8.37;;;3.87;;
6205;SDS011;3136;48.788;9.772;2022-10-31T12:00:27;11.10;;;3.50;;
6205;SDS011;3136;48.788;9.772;2022-10-31T12:06:00;12.10;;;3.67;;
6205;SDS011;3136;48.788;9.772;2022-10-31T12:08:43;9.13;;;3.83;;
6205;SDS011;3136;48.788;9.772;2022-10-31T12:11:11;9.60;;;3.93;;
6205;SDS011;3136;48.788;9.772;2022-10-31T12:13:59;11.27;;;3.53;;
6205;SDS011;3136;48.788;9.772;2022-10-31T12:19:23;12.13;;;3.87;;
6205;SDS011;3136;48.788;9.772;2022-10-31T12:21:59;9.37;;;3.40;;
6205;SDS011;3136;48.788;9.772;2022-10-31T12:36:04;7.33;;;3.20;;
6205;SDS011;3136;48.788;9.772;2022-10-31T12:41:44;8.60;;;4.80;;
6205;SDS011;3136;48.788;9.772;2022-10-31T12:50:12;9.90;;;4.27;;
6205;SDS011;3136;48.788;9.772;2022-10-31T12:52:54;12.03;;;3.93;;
6205;SDS011;3136;48.788;9.772;2022-10-31T12:58:10;8.37;;;4.10;;
6205;SDS011;3136;48.788;9.772;2022-10-31T13:01:14;12.27;;;3.70;;
6205;SDS011;3136;48.788;9.772;2022-10-31T13:03:44;17.47;;;4.57;;
6205;SDS011;3136;48.788;9.772;2022-10-31T13:06:17;20.43;;;4.10;;
6205;SDS011;3136;48.788;9.772;2022-10-31T13:08:53;9.10;;;3.50;;
6205;SDS011;3136;48.788;9.772;2022-10-31T13:11:36;8.57;;;3.60;;
6205;SDS011;3136;48.788;9.772;2022-10-31T13:14:10;12.30;;;3.80;;
6205;SDS011;3136;48.788;9.772;2022-10-31T13:16:49;9.90;;;3.63;;
6205;SDS011;3136;48.788;9.772;2022-10-31T13:19:24;11.47;;;4.07;;
6205;SDS011;3136;48.788;9.772;2022-10-31T13:21:57;24.03;;;4.53;;
6205;SDS011;3136;48.788;9.772;2022-10-31T13:24:36;15.40;;;3.90;;
6205;SDS011;3136;48.788;9.772;2022-10-31T13:27:14;12.17;;;4.37;;
6205;SDS011;3136;48.788;9.772;2022-10-31T13:32:29;10.17;;;4.50;;
6205;SDS011;3136;48.788;9.772;2022-10-31T13:40:55;8.87;;;3.63;;
6205;SDS011;3136;48.788;9.772;2022-10-31T13:44:06;18.90;;;4.60;;
6205;SDS011;3136;48.788;9.772;2022-10-31T13:49:01;8.90;;;3.60;;
6205;SDS011;3136;48.788;9.772;2022-10-31T13:51:31;11.00;;;3.43;;
6205;SDS011;3136;48.788;9.772;2022-10-31T13:56:49;9.13;;;3.90;;
6205;SDS011;3136;48.788;9.772;2022-10-31T13:59:19;11.53;;;3.40;;
6205;SDS011;3136;48.788;9.772;2022-10-31T14:01:51;8.83;;;3.40;;
6205;SDS011;3136;48.788;9.772;2022-10-31T14:04:25;20.17;;;4.13;;
6205;SDS011;3136;48.788;9.772;2022-10-31T14:07:13;10.93;;;3.97;;
6205;SDS011;3136;48.788;9.772;2022-10-31T14:10:02;14.77;;;4.20;;
6205;SDS011;3136;48.788;9.772;2022-10-31T14:28:46;15.57;;;4.10;;
6205;SDS011;3136;48.788;9.772;2022-10-31T14:34:14;8.97;;;3.73;;
6205;SDS011;3136;48.788;9.772;2022-10-31T14:39:26;11.97;;;4.10;;
6205;SDS011;3136;48.788;9.772;2022-10-31T14:42:04;13.77;;;4.47;;
6205;SDS011;3136;48.788;9.772;2022-10-31T14:45:13;9.83;;;3.90;;
6205;SDS011;3136;48.788;9.772;2022-10-31T14:53:17;16.77;;;3.77;;
6205;SDS011;3136;48.788;9.772;2022-10-31T14:55:55;19.37;;;4.30;;
6205;SDS011;3136;48.788;9.772;2022-10-31T14:58:35;10.83;;;3.97;;
6205;SDS011;3136;48.788;9.772;2022-10-31T15:01:04;10.27;;;3.97;;
6205;SDS011;3136;48.788;9.772;2022-10-31T15:03:35;10.23;;;3.90;;
6205;SDS011;3136;48.788;9.772;2022-10-31T15:06:05;11.57;;;4.07;;
6205;SDS011;3136;48.788;9.772;2022-10-31T15:08:40;16.13;;;4.27;;
6205;SDS011;3136;48.788;9.772;2022-10-31T15:11:11;18.87;;;4.50;;
6205;SDS011;3136;48.788;9.772;2022-10-31T15:13:41;14.03;;;4.23;;
6205;SDS011;3136;48.788;9.772;2022-10-31T15:16:08;13.27;;;4.00;;
6205;SDS011;3136;48.788;9.772;2022-10-31T15:18:36;13.67;;;4.30;;
6205;SDS011;3136;48.788;9.772;2022-10-31T15:21:10;9.57;;;4.07;;
6205;SDS011;3136;48.788;9.772;2022-10-31T15:23:39;8.33;;;3.93;;
6205;SDS011;3136;48.788;9.772;2022-10-31T15:26:05;11.10;;;4.20;;
6205;SDS011;3136;48.788;9.772;2022-10-31T15:28:30;10.17;;;4.10;;
6205;SDS011;3136;48.788;9.772;2022-10-31T15:30:57;12.50;;;4.10;;
6205;SDS011;3136;48.788;9.772;2022-10-31T15:33:26;11.30;;;3.53;;
6205;SDS011;3136;48.788;9.772;2022-10-31T15:36:05;12.30;;;4.17;;
6205;SDS011;3136;48.788;9.772;2022-10-31T15:38:31;15.07;;;4.47;;
6205;SDS011;3136;48.788;9.772;2022-10-31T15:41:04;11.47;;;4.70;;
6205;SDS011;3136;48.788;9.772;2022-10-31T15:43:45;12.60;;;4.80;;
6205;SDS011;3136;48.788;9.772;2022-10-31T15:46:12;11.53;;;4.70;;
6205;SDS011;3136;48.788;9.772;2022-10-31T15:48:38;17.47;;;4.40;;
6205;SDS011;3136;48.788;9.772;2022-10-31T15:51:09;16.83;;;4.93;;
6205;SDS011;3136;48.788;9.772;2022-10-31T15:53:41;13.97;;;4.30;;
6205;SDS011;3136;48.788;9.772;2022-10-31T15:56:12;17.73;;;5.73;;
6205;SDS011;3136;48.788;9.772;2022-10-31T15:58:46;15.57;;;5.07;;
6205;SDS011;3136;48.788;9.772;2022-10-31T16:04:03;19.67;;;6.67;;
6205;SDS011;3136;48.788;9.772;2022-10-31T16:06:29;26.23;;;7.77;;
6205;SDS011;3136;48.788;9.772;2022-10-31T16:08:56;20.07;;;6.30;;
6205;SDS011;3136;48.788;9.772;2022-10-31T16:11:23;15.90;;;5.93;;
6205;SDS011;3136;48.788;9.772;2022-10-31T16:13:57;12.03;;;5.70;;
6205;SDS011;3136;48.788;9.772;2022-10-31T16:16:26;19.10;;;6.53;;
6205;SDS011;3136;48.788;9.772;2022-10-31T16:18:53;14.30;;;5.60;;
6205;SDS011;3136;48.788;9.772;2022-10-31T16:21:24;16.77;;;5.63;;
6205;SDS011;3136;48.788;9.772;2022-10-31T16:24:11;16.37;;;6.10;;
6205;SDS011;3136;48.788;9.772;2022-10-31T16:26:49;14.53;;;5.43;;
6205;SDS011;3136;48.788;9.772;2022-10-31T16:29:50;12.40;;;5.87;;
6205;SDS011;3136;48.788;9.772;2022-10-31T16:35:28;14.90;;;5.50;;
6205;SDS011;3136;48.788;9.772;2022-10-31T16:37:56;20.40;;;7.57;;
6205;SDS011;3136;48.788;9.772;2022-10-31T16:40:22;18.83;;;7.20;;
6205;SDS011;3136;48.788;9.772;2022-10-31T16:42:49;17.03;;;8.80;;
6205;SDS011;3136;48.788;9.772;2022-10-31T16:45:16;24.67;;;10.57;;
6205;SDS011;3136;48.788;9.772;2022-10-31T16:47:44;21.50;;;8.30;;
6205;SDS011;3136;48.788;9.772;2022-10-31T16:50:28;14.30;;;7.83;;
6205;SDS011;3136;48.788;9.772;2022-10-31T16:52:54;14.87;;;6.97;;
6205;SDS011;3136;48.788;9.772;2022-10-31T16:55:20;13.10;;;6.20;;
6205;SDS011;3136;48.788;9.772;2022-10-31T16:57:47;19.83;;;6.63;;
6205;SDS011;3136;48.788;9.772;2022-10-31T17:00:21;12.33;;;6.37;;
6205;SDS011;3136;48.788;9.772;2022-10-31T17:02:48;13.60;;;6.13;;
6205;SDS011;3136;48.788;9.772;2022-10-31T17:05:16;13.47;;;6.10;;
6205;SDS011;3136;48.788;9.772;2022-10-31T17:07:43;11.87;;;6.17;;
6205;SDS011;3136;48.788;9.772;2022-10-31T17:10:09;13.10;;;6.00;;
6205;SDS011;3136;48.788;9.772;2022-10-31T17:12:36;12.30;;;6.20;;
6205;SDS011;3136;48.788;9.772;2022-10-31T17:15:03;13.93;;;6.00;;
6205;SDS011;3136;48.788;9.772;2022-10-31T17:17:31;17.90;;;6.10;;
6205;SDS011;3136;48.788;9.772;2022-10-31T17:19:56;14.03;;;6.30;;
6205;SDS011;3136;48.788;9.772;2022-10-31T17:22:22;20.33;;;8.23;;
6205;SDS011;3136;48.788;9.772;2022-10-31T17:24:47;15.80;;;7.67;;
6205;SDS011;3136;48.788;9.772;2022-10-31T17:27:13;13.70;;;6.30;;
6205;SDS011;3136;48.788;9.772;2022-10-31T17:29:38;15.87;;;6.33;;
6205;SDS011;3136;48.788;9.772;2022-10-31T17:32:04;9.57;;;6.10;;
6205;SDS011;3136;48.788;9.772;2022-10-31T17:34:30;15.87;;;6.80;;
6205;SDS011;3136;48.788;9.772;2022-10-31T17:36:55;17.60;;;8.07;;
6205;SDS011;3136;48.788;9.772;2022-10-31T17:39:21;24.50;;;9.60;;
6205;SDS011;3136;48.788;9.772;2022-10-31T17:41:50;23.23;;;10.43;;